Time,TemperatureF,DewpointF,PressureIn,WindDirection,WindDirectionDegrees,WindSpeedMPH,WindSpeedGustMPH,Humidity,HourlyPrecipIn,Conditions,Clouds,dailyrainin,SoftwareType,DateUTC
2013-03-20 00:12:00,-4.2,-14.0,30.19,East,83,0.0,0.0,62,0.00,,,0.00,weatherlink.com 1.10,2013-03-20 08:12:00,
2013-03-20 00:27:00,-4.7,-14.0,30.19,East,84,0.0,0.0,63,0.00,,,0.00,weatherlink.com 1.10,2013-03-20 08:27:00,
2013-03-20 00:42:00,-5.1,-15.0,30.19,East,83,0.0,1.0,63,0.00,,,0.00,weatherlink.com 1.10,2013-03-20 08:42:00,
2013-03-20 00:57:00,-5.7,-15.0,30.19,East,84,0.0,1.0,63,0.00,,,0.00,weatherlink.com 1.10,2013-03-20 08:57:00,
2013-03-20 01:12:00,-6.3,-15.0,30.19,East,83,0.0,0.0,65,0.00,,,0.00,weatherlink.com 1.10,2013-03-20 09:12:00,
2013-03-20 01:27:00,-6.0,-15.0,30.19,East,83,0.0,1.0,64,0.00,,,0.00,weatherlink.com 1.10,2013-03-20 09:27:00,
2013-03-20 01:42:00,-6.2,-16.0,30.20,East,83,0.0,1.0,64,0.00,,,0.00,weatherlink.com 1.10,2013-03-20 09:42:00,
2013-03-20 01:57:00,-6.6,-15.0,30.19,East,84,0.0,0.0,66,0.00,,,0.00,weatherlink.com 1.10,2013-03-20 09:57:00,
2013-03-20 02:12:00,-7.0,-16.0,30.19,East,84,0.0,1.0,65,0.00,,,0.00,weatherlink.com 1.10,2013-03-20 10:12:00,
2013-03-20 02:27:00,-7.3,-17.0,30.19,East,87,1.0,1.0,64,0.00,,,0.00,weatherlink.com 1.10,2013-03-20 10:27:00,
2013-03-20 02:43:00,-7.6,-17.0,30.19,East,90,0.0,1.0,65,0.00,,,0.00,weatherlink.com 1.10,2013-03-20 10:43:00,
2013-03-20 02:58:00,-7.8,-17.0,30.19,East,98,1.0,1.0,65,0.00,,,0.00,weatherlink.com 1.10,2013-03-20 10:58:00,
2013-03-20 03:13:00,-8.3,-17.0,30.19,ESE,104,0.0,1.0,65,0.00,,,0.00,weatherlink.com 1.10,2013-03-20 11:13:00,
2013-03-20 03:28:00,-8.6,-17.0,30.19,East,84,0.0,1.0,66,0.00,,,0.00,weatherlink.com 1.10,2013-03-20 11:28:00,
2013-03-20 03:43:00,-8.7,-18.0,30.19,East,79,1.0,1.0,65,0.00,,,0.00,weatherlink.com 1.10,2013-03-20 11:43:00,
2013-03-20 03:58:00,-9.2,-18.0,30.19,East,84,0.0,1.0,66,0.00,,,0.00,weatherlink.com 1.10,2013-03-20 11:58:00,
2013-03-20 04:13:00,-9.5,-18.0,30.19,East,82,0.0,1.0,66,0.00,,,0.00,weatherlink.com 1.10,2013-03-20 12:13:00,
2013-03-20 04:28:00,-9.8,-18.0,30.19,East,82,0.0,1.0,66,0.00,,,0.00,weatherlink.com 1.10,2013-03-20 12:28:00,
2013-03-20 04:43:00,-9.8,-18.0,30.19,East,86,1.0,1.0,67,0.00,,,0.00,weatherlink.com 1.10,2013-03-20 12:43:00,
2013-03-20 04:58:00,-10.1,-18.0,30.19,East,85,0.0,1.0,67,0.00,,,0.00,weatherlink.com 1.10,2013-03-20 12:58:00,
2013-03-20 05:13:00,-10.2,-18.0,30.18,East,97,0.0,1.0,68,0.00,,,0.00,weatherlink.com 1.10,2013-03-20 13:13:00,
2013-03-20 05:28:00,-10.4,-18.0,30.18,East,81,0.0,1.0,68,0.00,,,0.00,weatherlink.com 1.10,2013-03-20 13:28:00,
2013-03-20 05:43:00,-10.7,-18.0,30.17,East,79,0.0,1.0,69,0.00,,,0.00,weatherlink.com 1.10,2013-03-20 13:43:00,
2013-03-20 05:58:00,-10.9,-18.0,30.17,East,91,0.0,1.0,69,0.00,,,0.00,weatherlink.com 1.10,2013-03-20 13:58:00,
2013-03-20 06:14:00,-11.4,-19.0,30.17,East,84,0.0,1.0,70,0.00,,,0.00,weatherlink.com 1.10,2013-03-20 14:14:00,
2013-03-20 06:29:00,-12.0,-19.0,30.16,East,84,1.0,1.0,71,0.00,,,0.00,weatherlink.com 1.10,2013-03-20 14:29:00,
2013-03-20 06:44:00,-12.4,-19.0,30.16,East,86,1.0,1.0,72,0.00,,,0.00,weatherlink.com 1.10,2013-03-20 14:44:00,
2013-03-20 06:59:00,-12.3,-19.0,30.16,East,91,1.0,2.0,73,0.00,,,0.00,weatherlink.com 1.10,2013-03-20 14:59:00,
2013-03-20 07:14:00,-12.5,-19.0,30.16,ENE,75,1.0,2.0,73,0.00,,,0.00,weatherlink.com 1.10,2013-03-20 15:14:00,
2013-03-20 07:29:00,-12.7,-19.0,30.16,ENE,77,1.0,2.0,73,0.00,,,0.00,weatherlink.com 1.10,2013-03-20 15:29:00,
2013-03-20 07:44:00,-12.5,-19.0,30.16,ENE,68,0.0,2.0,73,0.00,,,0.00,weatherlink.com 1.10,2013-03-20 15:44:00,
2013-03-20 07:59:00,-12.3,-19.0,30.15,SSE,156,0.0,1.0,73,0.00,,,0.00,weatherlink.com 1.10,2013-03-20 15:59:00,
2013-03-20 08:14:00,-12.0,-18.0,30.15,ENE,74,0.0,1.0,74,0.00,,,0.00,weatherlink.com 1.10,2013-03-20 16:14:00,
2013-03-20 08:29:00,-11.9,-18.0,30.15,East,84,0.0,0.0,74,0.00,,,0.00,weatherlink.com 1.10,2013-03-20 16:29:00,
2013-03-20 08:44:00,-11.6,-18.0,30.15,East,94,0.0,1.0,73,0.00,,,0.00,weatherlink.com 1.10,2013-03-20 16:44:00,
2013-03-20 08:59:00,-11.3,-18.0,30.16,East,93,0.0,0.0,73,0.00,,,0.00,weatherlink.com 1.10,2013-03-20 16:59:00,
2013-03-20 09:14:00,-11.0,-17.0,30.15,East,95,0.0,0.0,73,0.00,,,0.00,weatherlink.com 1.10,2013-03-20 17:14:00,
2013-03-20 09:30:00,-10.5,-17.0,30.16,East,94,0.0,0.0,73,0.00,,,0.00,weatherlink.com 1.10,2013-03-20 17:30:00,
2013-03-20 09:45:00,-9.1,-16.0,30.15,East,100,0.0,1.0,73,0.00,,,0.00,weatherlink.com 1.10,2013-03-20 17:45:00,
2013-03-20 10:00:00,-8.2,-15.0,30.15,East,94,0.0,1.0,71,0.00,,,0.00,weatherlink.com 1.10,2013-03-20 18:00:00,
2013-03-20 10:15:00,-7.2,-14.0,30.16,ENE,78,0.0,1.0,71,0.00,,,0.00,weatherlink.com 1.10,2013-03-20 18:15:00,
2013-03-20 10:30:00,-6.1,-13.0,30.16,ESE,105,0.0,0.0,71,0.00,,,0.00,weatherlink.com 1.10,2013-03-20 18:30:00,
2013-03-20 10:45:00,-4.8,-12.0,30.15,SW,224,0.0,1.0,71,0.00,,,0.00,weatherlink.com 1.10,2013-03-20 18:45:00,
2013-03-20 11:00:00,-3.4,-11.0,30.15,SSW,210,0.0,1.0,71,0.00,,,0.00,weatherlink.com 1.10,2013-03-20 19:00:00,
2013-03-20 11:15:00,-2.0,-10.0,30.15,ENE,59,0.0,1.0,69,0.00,,,0.00,weatherlink.com 1.10,2013-03-20 19:15:00,
2013-03-20 11:30:00,-1.1,-9.0,30.14,SE,134,0.0,2.0,68,0.00,,,0.00,weatherlink.com 1.10,2013-03-20 19:30:00,
2013-03-20 11:45:00,0.0,-9.0,30.14,ESE,113,1.0,2.0,66,0.00,,,0.00,weatherlink.com 1.10,2013-03-20 19:45:00,
2013-03-20 12:00:00,1.2,-8.0,30.14,SSW,207,0.0,3.0,64,0.00,,,0.00,weatherlink.com 1.10,2013-03-20 20:00:00,
2013-03-20 12:15:00,3.0,-7.0,30.14,SSW,202,0.0,1.0,62,0.00,,,0.00,weatherlink.com 1.10,2013-03-20 20:15:00,
2013-03-20 12:30:00,3.9,-7.0,30.13,East,86,1.0,2.0,60,0.00,,,0.00,weatherlink.com 1.10,2013-03-20 20:30:00,
2013-03-20 12:46:00,5.2,-7.0,30.13,SSE,150,0.0,3.0,57,0.00,,,0.00,weatherlink.com 1.10,2013-03-20 20:46:00,
2013-03-20 13:01:00,5.5,-7.0,30.13,SSW,205,0.0,4.0,57,0.00,,,0.00,weatherlink.com 1.10,2013-03-20 21:01:00,
2013-03-20 13:16:00,5.7,-6.0,30.13,ESE,116,0.0,2.0,59,0.00,,,0.00,weatherlink.com 1.10,2013-03-20 21:16:00,
2013-03-20 13:31:00,6.0,-6.0,30.13,SW,217,1.0,3.0,59,0.00,,,0.00,weatherlink.com 1.10,2013-03-20 21:31:00,
2013-03-20 14:01:00,7.1,-5.0,30.12,NNE,30,2.0,6.0,59,0.00,,,0.00,weatherlink.com 1.10,2013-03-20 22:01:00,
2013-03-20 14:31:00,8.4,-4.0,30.11,ESE,117,0.0,3.0,57,0.00,,,0.00,weatherlink.com 1.10,2013-03-20 22:31:00,
2013-03-20 14:46:00,9.1,-4.0,30.11,WNW,284,0.0,5.0,56,0.00,,,0.00,weatherlink.com 1.10,2013-03-20 22:46:00,
2013-03-20 15:01:00,9.4,-4.0,30.10,SW,225,0.0,7.0,54,0.00,,,0.00,weatherlink.com 1.10,2013-03-20 23:01:00,
2013-03-20 15:16:00,9.3,-4.0,30.11,NNE,25,0.0,4.0,55,0.00,,,0.00,weatherlink.com 1.10,2013-03-20 23:16:00,
2013-03-20 15:31:00,9.4,-4.0,30.10,ENE,60,2.0,3.0,55,0.00,,,0.00,weatherlink.com 1.10,2013-03-20 23:31:00,
2013-03-20 15:46:00,9.6,-4.0,30.09,NE,44,0.0,4.0,55,0.00,,,0.00,weatherlink.com 1.10,2013-03-20 23:46:00,
2013-03-20 16:01:00,9.4,-4.0,30.09,East,100,3.0,4.0,55,0.00,,,0.00,weatherlink.com 1.10,2013-03-21 00:01:00,
2013-03-20 16:17:00,9.4,-4.0,30.09,SW,221,0.0,3.0,56,0.00,,,0.00,weatherlink.com 1.10,2013-03-21 00:17:00,
2013-03-20 16:32:00,8.9,-4.0,30.09,SE,134,0.0,7.0,56,0.00,,,0.00,weatherlink.com 1.10,2013-03-21 00:32:00,
2013-03-20 16:47:00,8.8,-3.0,30.09,SE,129,2.0,5.0,58,0.00,,,0.00,weatherlink.com 1.10,2013-03-21 00:47:00,
2013-03-20 17:02:00,8.8,-4.0,30.09,SE,141,1.0,5.0,56,0.00,,,0.00,weatherlink.com 1.10,2013-03-21 01:02:00,
2013-03-20 17:17:00,8.8,-4.0,30.09,SSE,165,1.0,5.0,55,0.00,,,0.00,weatherlink.com 1.10,2013-03-21 01:17:00,
2013-03-20 17:32:00,8.9,-4.0,30.09,SE,132,1.0,3.0,55,0.00,,,0.00,weatherlink.com 1.10,2013-03-21 01:32:00,
2013-03-20 17:47:00,9.0,-4.0,30.08,South,172,0.0,4.0,55,0.00,,,0.00,weatherlink.com 1.10,2013-03-21 01:47:00,
2013-03-20 18:02:00,9.2,-5.0,30.08,SSE,155,0.0,6.0,54,0.00,,,0.00,weatherlink.com 1.10,2013-03-21 02:02:00,
2013-03-20 18:17:00,8.8,-5.0,30.08,SE,139,0.0,2.0,54,0.00,,,0.00,weatherlink.com 1.10,2013-03-21 02:17:00,
2013-03-20 18:32:00,7.8,-5.0,30.08,South,183,0.0,0.0,56,0.00,,,0.00,weatherlink.com 1.10,2013-03-21 02:32:00,
2013-03-20 18:47:00,7.2,-5.0,30.08,South,181,0.0,0.0,57,0.00,,,0.00,weatherlink.com 1.10,2013-03-21 02:47:00,
2013-03-20 19:02:00,6.5,-6.0,30.08,South,181,0.0,0.0,58,0.00,,,0.00,weatherlink.com 1.10,2013-03-21 03:02:00,
2013-03-20 19:17:00,6.1,-6.0,30.08,South,181,0.0,0.0,59,0.00,,,0.00,weatherlink.com 1.10,2013-03-21 03:17:00,
2013-03-20 19:33:00,6.3,-5.0,30.08,South,181,0.0,0.0,59,0.00,,,0.00,weatherlink.com 1.10,2013-03-21 03:33:00,
2013-03-20 19:48:00,5.8,-6.0,30.08,South,181,0.0,0.0,59,0.00,,,0.00,weatherlink.com 1.10,2013-03-21 03:48:00,
2013-03-20 20:03:00,5.7,-6.0,30.09,South,181,0.0,0.0,60,0.00,,,0.00,weatherlink.com 1.10,2013-03-21 04:03:00,
2013-03-20 20:18:00,5.5,-6.0,30.09,South,181,0.0,0.0,60,0.00,,,0.00,weatherlink.com 1.10,2013-03-21 04:18:00,
2013-03-20 20:33:00,4.7,-6.0,30.10,South,181,0.0,0.0,61,0.00,,,0.00,weatherlink.com 1.10,2013-03-21 04:33:00,
2013-03-20 20:48:00,4.8,-6.0,30.10,South,181,0.0,0.0,61,0.00,,,0.00,weatherlink.com 1.10,2013-03-21 04:48:00,
2013-03-20 21:03:00,4.7,-6.0,30.10,South,181,0.0,0.0,62,0.00,,,0.00,weatherlink.com 1.10,2013-03-21 05:03:00,
2013-03-20 21:18:00,4.5,-6.0,30.11,South,181,0.0,0.0,63,0.00,,,0.00,weatherlink.com 1.10,2013-03-21 05:18:00,
2013-03-20 21:33:00,3.7,-6.0,30.11,South,181,0.0,0.0,65,0.00,,,0.00,weatherlink.com 1.10,2013-03-21 05:33:00,
2013-03-20 21:48:00,3.2,-5.0,30.11,South,182,0.0,0.0,69,0.00,,,0.00,weatherlink.com 1.10,2013-03-21 05:48:00,
2013-03-20 22:03:00,3.5,-3.0,30.11,East,80,0.0,0.0,74,0.00,,,0.00,weatherlink.com 1.10,2013-03-21 06:03:00,
2013-03-20 22:18:00,2.8,-3.0,30.12,East,82,0.0,0.0,75,0.00,,,0.00,weatherlink.com 1.10,2013-03-21 06:18:00,
2013-03-20 22:33:00,1.9,-4.0,30.12,East,84,0.0,0.0,77,0.00,,,0.00,weatherlink.com 1.10,2013-03-21 06:33:00,
2013-03-20 22:48:00,1.7,-4.0,30.12,East,84,0.0,0.0,78,0.00,,,0.00,weatherlink.com 1.10,2013-03-21 06:48:00,
2013-03-20 23:04:00,1.4,-4.0,30.13,East,84,0.0,1.0,79,0.00,,,0.00,weatherlink.com 1.10,2013-03-21 07:04:00,
2013-03-20 23:19:00,1.1,-4.0,30.13,East,84,1.0,1.0,80,0.00,,,0.00,weatherlink.com 1.10,2013-03-21 07:19:00,
2013-03-20 23:34:00,1.0,-4.0,30.14,East,86,0.0,1.0,80,0.00,,,0.00,weatherlink.com 1.10,2013-03-21 07:34:00,
2013-03-20 23:49:00,1.1,-3.0,30.14,East,86,0.0,1.0,81,0.00,,,0.00,weatherlink.com 1.10,2013-03-21 07:49:00,